createdAt,value
2023-01-20T00:00:56.084Z,100394.02
2023-01-20T00:06:20.412Z,100397.41
2023-01-20T00:11:45.029Z,100400.03
2023-01-20T00:17:07.273Z,100400.89
2023-01-20T00:22:29.887Z,100400.77
2023-01-20T00:27:53.707Z,100423.61
2023-01-20T00:33:16.827Z,100416.57
2023-01-20T00:38:39.267Z,100417.44
2023-01-20T00:44:02.743Z,100418.46
2023-01-20T00:49:25.215Z,100438.02
2023-01-20T00:54:47.611Z,100432.59
2023-01-20T01:00:10.629Z,100439.73
2023-01-20T01:05:34.438Z,100449.34
2023-01-20T01:10:57.298Z,100446.61
2023-01-20T01:16:27.007Z,100452.64
2023-01-20T01:21:49.414Z,100452.57
2023-01-20T01:27:12.246Z,100451.77
2023-01-20T01:32:35.188Z,100440.27
2023-01-20T01:37:57.508Z,100444.42
2023-01-20T01:43:32.653Z,100467.45
2023-01-20T01:48:59.778Z,100457.83
2023-01-20T01:54:27.494Z,100451.83
2023-01-20T01:59:50.481Z,100464.77
2023-01-20T02:05:13.425Z,100463.05
2023-01-20T02:10:36.608Z,100475.36
2023-01-20T02:16:19.036Z,100481.38
2023-01-20T02:22:28.614Z,100482.34
2023-01-20T02:28:32.976Z,100493.69
2023-01-20T02:34:18.285Z,100486.59
2023-01-20T02:39:45.802Z,100491.22
2023-01-20T02:45:33.093Z,100502.70
2023-01-20T02:51:15.308Z,100515.82
2023-01-20T02:56:40.882Z,100526.28
2023-01-20T03:02:17.048Z,100542.03
2023-01-20T03:07:43.043Z,100544.72
2023-01-20T03:13:22.198Z,100550.86
2023-01-20T03:18:47.154Z,100555.41
2023-01-20T03:24:15.114Z,100554.59
2023-01-20T03:29:37.335Z,100548.31
2023-01-20T03:35:01.482Z,100551.77
2023-01-20T03:40:26.204Z,100550.95
2023-01-20T03:45:59.294Z,100548.41
2023-01-20T03:51:29.862Z,100551.95
2023-01-20T03:57:15.097Z,100537.93
2023-01-20T04:02:40.374Z,100544.97
2023-01-20T04:08:06.879Z,100560.77
2023-01-20T04:13:29.763Z,100559.19
2023-01-20T04:18:57.614Z,100563.63
2023-01-20T04:24:39.863Z,100568.03
2023-01-20T04:30:02.238Z,100577.94
2023-01-20T04:35:29.285Z,100583.26
2023-01-20T04:40:51.589Z,100597.28
2023-01-20T04:46:24.812Z,100594.55
2023-01-20T04:51:47.192Z,100601.09
2023-01-20T04:57:09.449Z,100612.43
2023-01-20T05:02:31.845Z,100619.46
2023-01-20T05:07:54.307Z,100623.05
2023-01-20T05:13:17.221Z,100623.09
2023-01-20T05:18:39.803Z,100632.97
2023-01-20T05:24:02.693Z,100640.86
2023-01-20T05:29:25.060Z,100659.23
2023-01-20T05:34:47.347Z,100653.11
2023-01-20T05:40:10.074Z,100663.55
2023-01-20T05:45:32.937Z,100681.75
2023-01-20T05:50:55.384Z,100691.28
2023-01-20T05:56:18.908Z,100701.72
2023-01-20T06:01:42.065Z,100708.79
2023-01-20T06:07:04.431Z,100714.95
2023-01-20T06:12:27.009Z,100726.27
2023-01-20T06:17:49.754Z,100731.40
2023-01-20T06:23:15.214Z,100733.20
2023-01-20T06:28:37.459Z,100754.27
2023-01-20T06:34:00.470Z,100781.41
2023-01-20T06:39:22.917Z,100775.16
2023-01-20T06:44:45.801Z,100783.13
2023-01-20T06:50:08.841Z,100801.63
2023-01-20T06:55:31.215Z,100806.03
2023-01-20T07:00:54.099Z,100809.53
2023-01-20T07:06:24.149Z,100817.39
2023-01-20T07:11:40.871Z,100828.66
2023-01-20T07:17:03.139Z,100840.92
2023-01-20T07:22:25.703Z,100847.95
2023-01-20T07:27:47.948Z,100855.80
2023-01-20T07:33:10.498Z,100861.03
2023-01-20T07:38:33.777Z,100871.59
2023-01-20T07:43:58.323Z,100875.13
2023-01-20T07:49:21.466Z,100875.13
2023-01-20T07:54:43.786Z,100884.76
2023-01-20T08:00:06.375Z,100891.04
2023-01-20T08:05:29.273Z,100901.45
2023-01-20T08:10:51.831Z,100903.86
2023-01-20T08:16:16.747Z,100897.45
2023-01-20T08:21:44.237Z,100910.70
2023-01-20T08:27:06.573Z,100917.49
2023-01-20T08:32:30.052Z,100923.23
2023-01-20T08:37:55.534Z,100927.63
2023-01-20T08:43:17.762Z,100938.05
2023-01-20T08:48:43.425Z,100947.59
2023-01-20T08:54:06.603Z,100950.89
2023-01-20T08:59:29.497Z,100963.20
2023-01-20T09:04:54.789Z,100969.70
2023-01-20T09:10:18.219Z,100981.69
2023-01-20T09:15:41.520Z,100990.13
2023-01-20T09:21:06.192Z,100992.69
2023-01-20T09:26:35.778Z,100991.86
2023-01-20T09:31:58.984Z,100999.73
2023-01-20T09:37:40.131Z,100994.90
2023-01-20T09:43:57.274Z,100988.89
2023-01-20T09:49:48.483Z,100994.00
2023-01-20T09:55:19.043Z,101007.18
2023-01-20T10:00:49.134Z,101016.30
2023-01-20T10:06:26.680Z,101011.22
2023-01-20T10:11:53.186Z,101005.94
2023-01-20T10:17:23.347Z,101012.99
2023-01-20T10:22:53.368Z,101016.89
2023-01-20T10:28:23.024Z,101023.56
2023-01-20T10:33:50.111Z,101016.25
2023-01-20T10:39:47.311Z,101008.75
2023-01-20T10:45:13.298Z,101000.38
2023-01-20T10:51:03.171Z,100993.31
2023-01-20T10:56:40.864Z,101002.44
2023-01-20T11:02:12.650Z,101007.03
2023-01-20T11:07:40.269Z,100994.11
2023-01-20T11:13:07.110Z,101011.53
2023-01-20T11:18:39.838Z,101018.62
2023-01-20T11:24:11.442Z,100999.97
2023-01-20T11:29:38.876Z,101013.63
2023-01-20T11:35:05.298Z,101027.80
2023-01-20T11:40:41.906Z,101022.25
2023-01-20T11:46:24.775Z,101051.45
2023-01-20T11:51:57.273Z,101044.83
2023-01-20T11:57:24.000Z,101064.17
2023-01-20T12:02:49.349Z,101063.59
2023-01-20T12:08:15.789Z,101064.41
2023-01-20T12:14:05.675Z,101081.05
2023-01-20T12:19:34.110Z,101080.06
2023-01-20T12:25:08.725Z,101091.40
2023-01-20T12:30:49.074Z,101090.30
2023-01-20T12:36:38.758Z,101095.48
2023-01-20T12:42:25.143Z,101091.06
2023-01-20T12:48:00.590Z,101103.59
2023-01-20T12:53:40.525Z,101103.08
2023-01-20T12:59:09.390Z,101111.23
2023-01-20T13:05:03.689Z,101112.88
2023-01-20T13:10:53.459Z,101132.55
2023-01-20T13:16:37.027Z,101138.79
2023-01-20T13:22:07.910Z,101152.10
2023-01-20T13:27:37.451Z,101154.58
2023-01-20T13:33:06.432Z,101168.89
2023-01-20T13:38:39.603Z,101172.67
2023-01-20T13:44:05.736Z,101164.84
2023-01-20T13:49:55.578Z,101169.25
2023-01-20T13:55:39.913Z,101169.75
2023-01-20T14:01:09.103Z,101164.95
2023-01-20T14:06:36.320Z,101167.98
2023-01-20T14:12:05.331Z,101175.05
2023-01-20T14:17:31.513Z,101181.29
2023-01-20T14:22:56.525Z,101180.45
2023-01-20T14:28:25.620Z,101179.63
2023-01-20T14:33:53.411Z,101194.56
2023-01-20T14:39:20.073Z,101199.67
2023-01-20T14:44:46.526Z,101211.97
2023-01-20T14:50:11.191Z,101231.25
2023-01-20T14:55:50.319Z,101229.61
2023-01-20T15:01:19.063Z,101243.78
2023-01-20T15:06:43.315Z,101242.84
2023-01-20T15:12:27.408Z,101256.02
2023-01-20T15:18:11.545Z,101269.97
2023-01-20T15:23:49.569Z,101285.81
2023-01-20T15:29:29.334Z,101289.28
2023-01-20T15:34:57.406Z,101294.52
2023-01-20T15:40:31.975Z,101312.13
2023-01-20T15:45:57.142Z,101324.46
2023-01-20T15:51:39.112Z,101327.76
2023-01-20T15:57:03.523Z,101340.27
2023-01-20T16:02:32.617Z,101352.58
2023-01-20T16:07:56.824Z,101351.84
2023-01-20T16:13:22.596Z,101359.72
2023-01-20T16:18:47.230Z,101366.70
2023-01-20T16:24:12.543Z,101371.97
2023-01-20T16:29:37.788Z,101368.50
2023-01-20T16:35:02.291Z,101379.84
2023-01-20T16:40:30.077Z,101378.05
2023-01-20T16:45:58.622Z,101382.51
2023-01-20T16:51:26.851Z,101400.03
2023-01-20T16:56:53.114Z,101419.55
2023-01-20T17:02:18.049Z,101441.56
2023-01-20T17:07:42.212Z,101436.36
2023-01-20T17:13:07.178Z,101455.70
2023-01-20T17:18:31.873Z,101453.03
2023-01-20T17:23:57.047Z,101466.25
2023-01-20T17:29:23.535Z,101468.94
2023-01-20T17:34:47.686Z,101482.12
2023-01-20T17:40:13.429Z,101483.88
2023-01-20T17:45:37.148Z,101483.04
2023-01-20T17:50:59.796Z,101476.91
2023-01-20T17:56:25.337Z,101493.64
2023-01-20T18:01:51.002Z,101489.22
2023-01-20T18:07:14.123Z,101491.80
2023-01-20T18:12:37.130Z,101490.11
2023-01-20T18:18:01.586Z,101507.61
2023-01-20T18:23:23.906Z,101517.27
2023-01-20T18:28:51.296Z,101526.08
2023-01-20T18:34:20.112Z,101529.56
2023-01-20T18:39:44.530Z,101535.67
2023-01-20T18:45:09.423Z,101535.67
2023-01-20T18:50:31.701Z,101533.98
2023-01-20T18:55:54.095Z,101543.62
2023-01-20T19:01:29.325Z,101549.73
2023-01-20T19:06:55.363Z,101547.84
2023-01-20T19:12:17.660Z,101545.23
2023-01-20T19:17:40.195Z,101547.83
2023-01-20T19:23:05.076Z,101550.45
2023-01-20T19:28:29.156Z,101546.95
2023-01-20T19:33:53.637Z,101550.50
2023-01-20T19:39:18.270Z,101551.42
2023-01-20T19:44:40.579Z,101547.84
2023-01-20T19:50:04.334Z,101560.17
2023-01-20T19:55:27.085Z,101559.28
2023-01-20T20:00:49.486Z,101568.03
2023-01-20T20:06:12.412Z,101568.92
2023-01-20T20:11:36.300Z,101570.65
2023-01-20T20:17:00.143Z,101575.80
2023-01-20T20:22:23.317Z,101577.53
2023-01-20T20:27:46.078Z,101573.98
2023-01-20T20:33:08.682Z,101574.83
2023-01-20T20:38:31.278Z,101586.25
2023-01-20T20:43:54.204Z,101594.11
2023-01-20T20:49:19.524Z,101597.53
2023-01-20T20:54:41.986Z,101600.06
2023-01-20T21:00:04.470Z,101609.70
2023-01-20T21:05:27.216Z,101622.89
2023-01-20T21:10:49.702Z,101620.28
2023-01-20T21:16:20.046Z,101628.20
2023-01-20T21:21:43.287Z,101643.13
2023-01-20T21:27:06.815Z,101651.87
2023-01-20T21:32:29.465Z,101653.56
2023-01-20T21:37:51.799Z,101648.31
2023-01-20T21:43:32.227Z,101635.14
2023-01-20T21:49:12.136Z,101643.05
2023-01-20T21:54:29.125Z,101617.61
2023-01-20T21:59:51.675Z,101636.01
2023-01-20T22:05:15.114Z,101629.00
2023-01-20T22:10:38.787Z,101627.20
2023-01-20T22:16:01.248Z,101628.05
2023-01-20T22:21:29.770Z,101622.77
2023-01-20T22:26:55.979Z,101628.89
2023-01-20T22:32:18.311Z,101638.47
2023-01-20T22:37:42.228Z,101649.89
2023-01-20T22:43:04.583Z,101658.59
2023-01-20T22:48:27.256Z,101634.84
2023-01-20T22:53:50.383Z,101647.14
2023-01-20T22:59:14.023Z,101640.89
2023-01-20T23:04:36.324Z,101637.34
2023-01-20T23:09:58.659Z,101644.36
2023-01-20T23:15:21.249Z,101637.34
2023-01-20T23:20:43.792Z,101627.56
2023-01-20T23:31:41.710Z,101629.07
2023-01-20T23:37:16.244Z,101630.07
2023-01-20T23:42:38.496Z,101623.91
2023-01-20T23:48:00.869Z,101614.11
2023-01-20T23:53:23.657Z,101614.11
2023-01-20T23:58:45.974Z,101600.02
